createdAt,value
2023-04-15T00:00:41.171Z,97509.00
2023-04-15T00:03:09.656Z,97505.00
2023-04-15T00:05:37.943Z,97504.00
2023-04-15T00:08:06.535Z,97502.00
2023-04-15T00:10:35.981Z,97513.00
2023-04-15T00:13:04.425Z,97510.00
2023-04-15T00:15:32.795Z,97518.00
2023-04-15T00:18:00.925Z,97511.00
2023-04-15T00:20:29.053Z,97502.00
2023-04-15T00:22:58.106Z,97500.00
2023-04-15T00:25:26.254Z,97498.00
2023-04-15T00:27:55.659Z,97497.00
2023-04-15T00:30:24.109Z,97491.00
2023-04-15T00:32:52.687Z,97494.00
2023-04-15T00:35:20.857Z,97471.00
2023-04-15T00:37:48.870Z,97489.00
2023-04-15T00:40:17.293Z,97485.00
2023-04-15T00:42:45.769Z,97475.00
2023-04-15T00:45:15.719Z,97479.00
2023-04-15T00:47:44.397Z,97484.00
2023-04-15T00:50:12.913Z,97483.00
2023-04-15T00:52:41.087Z,97475.00
2023-04-15T00:55:10.013Z,97466.00
2023-04-15T00:57:38.056Z,97464.00
2023-04-15T01:00:08.101Z,97470.00
2023-04-15T01:02:37.659Z,97469.00
2023-04-15T01:05:06.255Z,97469.00
2023-04-15T01:07:34.252Z,97461.00
2023-04-15T01:10:02.347Z,97458.00
2023-04-15T01:12:30.557Z,97468.00
2023-04-15T01:14:58.592Z,97468.00
2023-04-15T01:17:26.776Z,97463.00
2023-04-15T01:19:56.780Z,97466.00
2023-04-15T01:22:25.589Z,97456.00
2023-04-15T01:24:57.102Z,97464.00
2023-04-15T01:27:26.575Z,97462.00
2023-04-15T01:29:54.718Z,97462.00
2023-04-15T01:32:22.819Z,97462.00
2023-04-15T01:34:50.878Z,97463.00
2023-04-15T01:37:18.918Z,97454.00
2023-04-15T01:39:46.991Z,97460.00
2023-04-15T01:42:15.030Z,97457.00
2023-04-15T01:44:44.413Z,97454.00
2023-04-15T01:47:12.452Z,97449.00
2023-04-15T01:49:40.511Z,97451.00
2023-04-15T01:52:09.114Z,97448.00
2023-04-15T01:54:37.131Z,97445.00
2023-04-15T01:57:05.634Z,97443.00
2023-04-15T01:59:33.640Z,97453.00
2023-04-15T02:02:03.053Z,97440.00
2023-04-15T02:04:31.758Z,97434.00
2023-04-15T02:06:59.866Z,97437.00
2023-04-15T02:09:27.952Z,97438.00
2023-04-15T02:11:55.971Z,97436.00
2023-04-15T02:14:23.991Z,97430.00
2023-04-15T02:16:52.150Z,97444.00
2023-04-15T02:19:21.579Z,97433.00
2023-04-15T02:21:49.594Z,97429.00
2023-04-15T02:24:17.644Z,97433.00
2023-04-15T02:26:46.750Z,97421.00
2023-04-15T02:29:14.826Z,97421.00
2023-04-15T02:31:43.764Z,97425.00
2023-04-15T02:34:11.833Z,97426.00
2023-04-15T02:36:41.315Z,97419.00
2023-04-15T02:39:09.828Z,97422.00
2023-04-15T02:41:37.840Z,97413.00
2023-04-15T02:44:07.235Z,97425.00
2023-04-15T02:46:35.255Z,97418.00
2023-04-15T02:49:03.525Z,97421.00
2023-04-15T02:51:32.133Z,97428.00
2023-04-15T02:54:01.685Z,97423.00
2023-04-15T02:56:30.303Z,97435.00
2023-04-15T02:58:58.843Z,97420.00
2023-04-15T03:01:27.358Z,97429.00
2023-04-15T03:03:55.845Z,97430.00
2023-04-15T03:06:24.759Z,97423.00
2023-04-15T03:08:52.801Z,97425.00
2023-04-15T03:11:22.769Z,97425.00
2023-04-15T03:13:50.796Z,97429.00
2023-04-15T03:16:18.889Z,97428.00
2023-04-15T03:18:46.955Z,97418.00
2023-04-15T03:21:14.962Z,97428.00
2023-04-15T03:23:42.988Z,97426.00
2023-04-15T03:26:11.132Z,97421.00
2023-04-15T03:28:40.666Z,97417.00
2023-04-15T03:31:08.733Z,97424.00
2023-04-15T03:33:36.752Z,97432.00
2023-04-15T03:36:05.076Z,97428.00
2023-04-15T03:38:33.269Z,97430.00
2023-04-15T03:41:01.297Z,97424.00
2023-04-15T03:43:29.324Z,97423.00
2023-04-15T03:46:00.228Z,97417.00
2023-04-15T03:48:29.923Z,97430.00
2023-04-15T03:50:57.947Z,97424.00
2023-04-15T03:53:25.921Z,97422.00
2023-04-15T03:55:53.872Z,97416.00
2023-04-15T03:58:21.903Z,97426.00
2023-04-15T04:00:49.901Z,97424.00
2023-04-15T04:03:19.667Z,97424.00
2023-04-15T04:05:47.832Z,97429.00
2023-04-15T04:08:16.430Z,97424.00
2023-04-15T04:10:44.457Z,97429.00
2023-04-15T04:13:12.503Z,97435.00
2023-04-15T04:15:40.827Z,97439.00
2023-04-15T04:18:08.961Z,97431.00
2023-04-15T04:20:38.447Z,97428.00
2023-04-15T04:23:06.622Z,97430.00
2023-04-15T04:25:34.635Z,97424.00
2023-04-15T04:28:02.732Z,97424.00
2023-04-15T04:30:30.914Z,97428.00
2023-04-15T04:32:59.053Z,97428.00
2023-04-15T04:35:27.444Z,97439.00
2023-04-15T04:37:57.350Z,97437.00
2023-04-15T04:40:25.362Z,97426.00
2023-04-15T04:42:53.438Z,97428.00
2023-04-15T04:45:21.778Z,97426.00
2023-04-15T04:47:49.895Z,97425.00
2023-04-15T04:50:18.108Z,97435.00
2023-04-15T04:52:46.230Z,97438.00
2023-04-15T04:55:16.040Z,97430.00
2023-04-15T04:57:44.087Z,97439.00
2023-04-15T05:00:13.005Z,97446.00
2023-04-15T05:02:41.938Z,97434.00
2023-04-15T05:05:11.035Z,97440.00
2023-04-15T05:07:39.574Z,97445.00
2023-04-15T05:10:08.963Z,97433.00
2023-04-15T05:12:38.666Z,97433.00
2023-04-15T05:15:07.974Z,97432.00
2023-04-15T05:17:36.144Z,97431.00
2023-04-15T05:20:04.348Z,97426.00
2023-04-15T05:22:32.339Z,97429.00
2023-04-15T05:25:00.380Z,97429.00
2023-04-15T05:27:28.422Z,97423.00
2023-04-15T05:29:57.843Z,97427.00
2023-04-15T05:32:25.942Z,97431.00
2023-04-15T05:34:53.968Z,97425.00
2023-04-15T05:37:22.403Z,97431.00
2023-04-15T05:39:50.413Z,97434.00
2023-04-15T05:42:18.410Z,97437.00
2023-04-15T05:44:46.734Z,97432.00
2023-04-15T05:47:16.098Z,97434.00
2023-04-15T05:49:44.148Z,97433.00
2023-04-15T05:52:12.167Z,97431.00
2023-04-15T05:54:40.187Z,97440.00
2023-04-15T05:57:08.351Z,97443.00
2023-04-15T05:59:36.414Z,97435.00
2023-04-15T06:02:04.580Z,97441.00
2023-04-15T06:04:34.231Z,97441.00
2023-04-15T06:07:02.462Z,97445.00
2023-04-15T06:09:30.939Z,97452.00
2023-04-15T06:11:59.684Z,97449.00
2023-04-15T06:14:27.688Z,97443.00
2023-04-15T06:16:55.745Z,97450.00
2023-04-15T06:19:23.772Z,97459.00
2023-04-15T06:21:53.147Z,97462.00
2023-04-15T06:24:21.194Z,97459.00
2023-04-15T06:26:49.341Z,97463.00
2023-04-15T06:29:17.400Z,97463.00
2023-04-15T06:31:46.062Z,97447.00
2023-04-15T06:34:14.119Z,97459.00
2023-04-15T06:36:42.190Z,97460.00
2023-04-15T06:39:11.633Z,97451.00
2023-04-15T06:41:39.611Z,97457.00
2023-04-15T06:44:07.673Z,97459.00
2023-04-15T06:46:35.718Z,97465.00
2023-04-15T06:49:03.946Z,97461.00
2023-04-15T06:51:32.819Z,97462.00
2023-04-15T06:54:00.816Z,97466.00
2023-04-15T06:56:30.687Z,97463.00
2023-04-15T06:58:58.757Z,97456.00
2023-04-15T07:01:27.047Z,97463.00
2023-04-15T07:03:55.175Z,97472.00
2023-04-15T07:06:23.276Z,97469.00
2023-04-15T07:08:51.400Z,97479.00
2023-04-15T07:11:19.440Z,97476.00
2023-04-15T07:13:49.160Z,97479.00
2023-04-15T07:16:17.421Z,97472.00
2023-04-15T07:18:45.574Z,97480.00
2023-04-15T07:21:16.421Z,97485.00
2023-04-15T07:23:44.510Z,97487.00
2023-04-15T07:26:12.776Z,97484.00
2023-04-15T07:28:41.253Z,97478.00
2023-04-15T07:31:10.865Z,97487.00
2023-04-15T07:33:39.045Z,97482.00
2023-04-15T07:36:07.492Z,97488.00
2023-04-15T07:38:35.715Z,97493.00
2023-04-15T07:41:04.237Z,97497.00
2023-04-15T07:43:32.300Z,97504.00
2023-04-15T07:46:00.460Z,97505.00
2023-04-15T07:48:29.905Z,97495.00
2023-04-15T07:50:58.022Z,97498.00
2023-04-15T07:53:26.204Z,97495.00
2023-04-15T07:55:54.290Z,97505.00
2023-04-15T07:58:22.380Z,97516.00
2023-04-15T08:00:50.476Z,97495.00
2023-04-15T08:03:18.722Z,97503.00
2023-04-15T08:05:48.676Z,97493.00
2023-04-15T08:08:16.838Z,97505.00
2023-04-15T08:10:44.902Z,97504.00
2023-04-15T08:13:12.993Z,97502.00
2023-04-15T08:15:41.125Z,97498.00
2023-04-15T08:18:09.278Z,97494.00
2023-04-15T08:20:37.686Z,97500.00
2023-04-15T08:23:07.172Z,97499.00
2023-04-15T08:25:35.248Z,97478.00
2023-04-15T08:28:05.609Z,97493.00
2023-04-15T08:30:34.567Z,97497.00
2023-04-15T08:33:02.820Z,97494.00
2023-04-15T08:35:31.671Z,97505.00
2023-04-15T08:37:59.759Z,97500.00
2023-04-15T08:40:29.413Z,97492.00
2023-04-15T08:42:57.527Z,97519.00
2023-04-15T08:45:25.750Z,97504.00
2023-04-15T08:47:54.042Z,97504.00
2023-04-15T08:50:22.322Z,97512.00
2023-04-15T08:52:50.545Z,97511.00
2023-04-15T08:55:21.963Z,97511.00
2023-04-15T08:57:52.012Z,97525.00
2023-04-15T09:00:20.366Z,97523.00
2023-04-15T09:02:48.797Z,97515.00
2023-04-15T09:05:17.584Z,97523.00
2023-04-15T09:07:45.717Z,97535.00
2023-04-15T09:10:13.865Z,97518.00
2023-04-15T09:12:42.026Z,97522.00
2023-04-15T09:15:12.593Z,97529.00
2023-04-15T09:17:43.561Z,97528.00
2023-04-15T09:20:13.102Z,97530.00
2023-04-15T09:22:41.186Z,97539.00
2023-04-15T09:25:27.961Z,97534.00
2023-04-15T09:27:56.670Z,97539.00
2023-04-15T09:30:26.207Z,97539.00
2023-04-15T09:32:55.233Z,97539.00
2023-04-15T09:35:24.046Z,97542.00
2023-04-15T09:37:52.480Z,97542.00
2023-04-15T09:40:32.631Z,97535.00
2023-04-15T09:43:01.963Z,97547.00
2023-04-15T09:45:31.593Z,97546.00
2023-04-15T09:47:59.810Z,97551.00
2023-04-15T09:50:28.929Z,97544.00
2023-04-15T09:52:57.431Z,97545.00
2023-04-15T09:55:28.222Z,97541.00
2023-04-15T09:57:56.401Z,97546.00
2023-04-15T10:00:24.512Z,97545.00
2023-04-15T10:02:54.141Z,97545.00
2023-04-15T10:05:23.430Z,97549.00
2023-04-15T10:07:51.643Z,97544.00
2023-04-15T10:10:19.949Z,97544.00
2023-04-15T10:12:48.103Z,97556.00
2023-04-15T10:15:17.538Z,97549.00
2023-04-15T10:17:45.909Z,97562.00
2023-04-15T10:20:15.587Z,97562.00
2023-04-15T10:22:43.706Z,97570.00
2023-04-15T10:25:12.325Z,97568.00
2023-04-15T10:27:42.204Z,97564.00
2023-04-15T10:30:11.552Z,97562.00
2023-04-15T10:32:39.693Z,97567.00
2023-04-15T10:35:08.876Z,97566.00
2023-04-15T10:37:38.972Z,97562.00
2023-04-15T10:40:27.425Z,97556.00
2023-04-15T10:42:56.645Z,97557.00
2023-04-15T10:45:27.332Z,97557.00
2023-04-15T10:47:58.749Z,97566.00
2023-04-15T10:50:28.290Z,97562.00
2023-04-15T10:52:57.919Z,97571.00
2023-04-15T10:55:27.459Z,97562.00
2023-04-15T10:57:56.450Z,97568.00
2023-04-15T11:00:26.692Z,97566.00
2023-04-15T11:02:55.888Z,97563.00
2023-04-15T11:05:24.903Z,97579.00
2023-04-15T11:07:55.069Z,97572.00
2023-04-15T11:10:57.551Z,97567.00
2023-04-15T11:13:28.394Z,97567.00
2023-04-15T11:16:03.323Z,97567.00
2023-04-15T11:18:33.015Z,97568.00
2023-04-15T11:21:06.836Z,97576.00
2023-04-15T11:23:36.793Z,97589.00
2023-04-15T11:26:09.508Z,97584.00
2023-04-15T11:28:38.894Z,97577.00
2023-04-15T11:31:11.972Z,97583.00
2023-04-15T11:33:54.757Z,97597.00
2023-04-15T11:36:24.905Z,97582.00
2023-04-15T11:38:53.230Z,97592.00
2023-04-15T11:41:23.506Z,97594.00
2023-04-15T11:43:51.646Z,97592.00
2023-04-15T11:46:19.877Z,97598.00
2023-04-15T11:48:48.260Z,97593.00
2023-04-15T11:51:16.382Z,97588.00
2023-04-15T11:53:45.938Z,97600.00
2023-04-15T11:56:18.733Z,97602.00
2023-04-15T11:58:48.363Z,97596.00
2023-04-15T12:01:16.418Z,97598.00
2023-04-15T12:03:45.446Z,97604.00
2023-04-15T12:06:16.838Z,97607.00
2023-04-15T12:08:58.525Z,97605.00
2023-04-15T12:11:37.501Z,97615.00
2023-04-15T12:14:09.099Z,97619.00
2023-04-15T12:16:48.990Z,97609.00
2023-04-15T12:19:25.216Z,97623.00
2023-04-15T12:21:56.168Z,97623.00
2023-04-15T12:24:25.056Z,97616.00
2023-04-15T12:26:53.985Z,97617.00
2023-04-15T12:29:26.837Z,97623.00
2023-04-15T12:31:56.078Z,97637.00
2023-04-15T12:34:30.786Z,97635.00
2023-04-15T12:36:59.332Z,97642.00
2023-04-15T12:39:30.482Z,97638.00
2023-04-15T12:41:58.908Z,97633.00
2023-04-15T12:44:28.543Z,97644.00
2023-04-15T12:46:56.693Z,97644.00
2023-04-15T12:49:25.555Z,97631.00
2023-04-15T12:51:54.814Z,97634.00
2023-04-15T12:54:22.947Z,97636.00
2023-04-15T12:56:51.219Z,97652.00
2023-04-15T12:59:19.584Z,97653.00
2023-04-15T13:01:49.392Z,97652.00
2023-04-15T13:04:17.654Z,97663.00
2023-04-15T13:06:45.681Z,97664.00
2023-04-15T13:09:13.740Z,97668.00
2023-04-15T13:11:41.945Z,97674.00
2023-04-15T13:14:11.503Z,97675.00
2023-04-15T13:16:40.111Z,97663.00
2023-04-15T13:19:09.689Z,97670.00
2023-04-15T13:21:38.715Z,97675.00
2023-04-15T13:24:08.058Z,97681.00
2023-04-15T13:26:36.334Z,97681.00
2023-04-15T13:29:04.637Z,97679.00
2023-04-15T13:31:32.820Z,97686.00
2023-04-15T13:34:00.965Z,97680.00
2023-04-15T13:36:30.658Z,97687.00
2023-04-15T13:39:00.012Z,97693.00
2023-04-15T13:41:28.075Z,97702.00
2023-04-15T13:43:56.205Z,97695.00
2023-04-15T13:46:25.788Z,97697.00
2023-04-15T13:48:53.834Z,97700.00
2023-04-15T13:51:22.003Z,97704.00
2023-04-15T13:53:51.684Z,97712.00
2023-04-15T13:56:20.005Z,97708.00
2023-04-15T13:58:48.190Z,97699.00
2023-04-15T14:01:16.396Z,97710.00
2023-04-15T14:03:44.803Z,97706.00
2023-04-15T14:06:12.935Z,97723.00
2023-04-15T14:08:41.259Z,97714.00
2023-04-15T14:11:11.412Z,97714.00
2023-04-15T14:13:42.728Z,97723.00
2023-04-15T14:16:10.943Z,97725.00
2023-04-15T14:18:39.102Z,97731.00
2023-04-15T14:21:07.406Z,97729.00
2023-04-15T14:23:35.407Z,97740.00
2023-04-15T14:26:03.500Z,97740.00
2023-04-15T14:28:33.231Z,97743.00
2023-04-15T14:31:01.650Z,97740.00
2023-04-15T14:33:33.537Z,97752.00
2023-04-15T14:36:01.813Z,97765.00
2023-04-15T14:38:33.781Z,97769.00
2023-04-15T14:41:02.049Z,97773.00
2023-04-15T14:43:30.144Z,97769.00
2023-04-15T14:45:59.814Z,97770.00
2023-04-15T14:48:28.380Z,97765.00
2023-04-15T14:50:56.497Z,97762.00
2023-04-15T14:53:24.681Z,97769.00
2023-04-15T14:55:52.873Z,97778.00
2023-04-15T14:58:21.231Z,97779.00
2023-04-15T15:00:49.587Z,97776.00
2023-04-15T15:03:19.141Z,97781.00
2023-04-15T15:05:48.289Z,97774.00
2023-04-15T15:08:16.618Z,97781.00
2023-04-15T15:10:48.252Z,97784.00
2023-04-15T15:13:17.763Z,97790.00
2023-04-15T15:15:46.183Z,97784.00
2023-04-15T15:18:14.167Z,97787.00
2023-04-15T15:20:43.748Z,97798.00
2023-04-15T15:23:11.789Z,97798.00
2023-04-15T15:25:39.918Z,97804.00
2023-04-15T15:28:08.765Z,97801.00
2023-04-15T15:30:36.862Z,97804.00
2023-04-15T15:33:04.927Z,97796.00
2023-04-15T15:35:33.304Z,97815.00
2023-04-15T15:38:03.412Z,97816.00
2023-04-15T15:40:31.546Z,97814.00
2023-04-15T15:42:59.590Z,97817.00
2023-04-15T15:45:27.630Z,97818.00
2023-04-15T15:47:57.115Z,97822.00
2023-04-15T15:50:25.284Z,97822.00
2023-04-15T15:52:53.366Z,97827.00
2023-04-15T15:55:23.439Z,97822.00
2023-04-15T15:57:51.519Z,97819.00
2023-04-15T16:00:19.660Z,97821.00
2023-04-15T16:05:18.797Z,97839.00
2023-04-15T16:07:46.824Z,97844.00
2023-04-15T16:10:14.828Z,97844.00
2023-04-15T16:12:44.247Z,97848.00
2023-04-15T16:15:13.386Z,97852.00
2023-04-15T16:17:41.572Z,97849.00
2023-04-15T16:20:10.414Z,97853.00
2023-04-15T16:22:38.479Z,97855.00
2023-04-15T16:25:07.294Z,97847.00
2023-04-15T16:27:43.444Z,97844.00
2023-04-15T16:30:22.084Z,97851.00
2023-04-15T16:32:50.406Z,97864.00
2023-04-15T16:35:18.617Z,97859.00
2023-04-15T16:37:46.753Z,97863.00
2023-04-15T16:40:15.208Z,97864.00
2023-04-15T16:42:43.761Z,97872.00
2023-04-15T16:45:12.519Z,97878.00
2023-04-15T16:47:42.006Z,97872.00
2023-04-15T16:50:11.064Z,97874.00
2023-04-15T16:52:39.331Z,97878.00
2023-04-15T16:55:07.889Z,97873.00
2023-04-15T16:58:01.554Z,97858.00
2023-04-15T17:00:24.437Z,97892.00
2023-04-15T17:02:54.011Z,97902.00
2023-04-15T17:05:22.084Z,97898.00
2023-04-15T17:07:50.563Z,97913.00
2023-04-15T17:10:18.893Z,97903.00
2023-04-15T17:12:47.034Z,97909.00
2023-04-15T17:15:15.329Z,97915.00
2023-04-15T17:17:43.628Z,97927.00
2023-04-15T17:20:13.636Z,97919.00
2023-04-15T17:22:41.885Z,97918.00
2023-04-15T17:25:10.496Z,97922.00
2023-04-15T17:27:39.112Z,97928.00
2023-04-15T17:30:13.806Z,97927.00
2023-04-15T17:32:42.151Z,97933.00
2023-04-15T17:35:11.074Z,97938.00
2023-04-15T17:37:40.738Z,97947.00
2023-04-15T17:40:16.358Z,97942.00
2023-04-15T17:42:44.624Z,97946.00
2023-04-15T17:45:12.905Z,97949.00
2023-04-15T17:47:41.581Z,97958.00
2023-04-15T17:50:10.146Z,97958.00
2023-04-15T17:52:38.201Z,97967.00
2023-04-15T17:55:08.763Z,97967.00
2023-04-15T17:57:36.899Z,97965.00
2023-04-15T18:00:05.544Z,97973.00
2023-04-15T18:02:41.903Z,97976.00
2023-04-15T18:05:10.677Z,97975.00
2023-04-15T18:07:38.898Z,97978.00
2023-04-15T18:10:10.207Z,97974.00
2023-04-15T18:12:38.276Z,97974.00
2023-04-15T18:15:09.486Z,97990.00
2023-04-15T18:17:37.739Z,97978.00
2023-04-15T18:20:07.335Z,97986.00
2023-04-15T18:22:35.373Z,98001.00
2023-04-15T18:25:04.908Z,97993.00
2023-04-15T18:27:34.984Z,97985.00
2023-04-15T18:30:03.452Z,97991.00
2023-04-15T18:32:32.904Z,97998.00
2023-04-15T18:35:01.171Z,98004.00
2023-04-15T18:37:30.027Z,98005.00
2023-04-15T18:39:58.037Z,98021.00
2023-04-15T18:42:26.208Z,98012.00
2023-04-15T18:44:55.615Z,98009.00
2023-04-15T18:47:25.201Z,98018.00
2023-04-15T18:49:54.891Z,98026.00
2023-04-15T18:52:22.995Z,98024.00
2023-04-15T18:54:51.066Z,98032.00
2023-04-15T18:57:23.110Z,98039.00
2023-04-15T19:00:01.226Z,98048.00
2023-04-15T19:02:29.665Z,98060.00
2023-04-15T19:05:04.313Z,98045.00
2023-04-15T19:07:32.649Z,98056.00
2023-04-15T19:10:01.099Z,98056.00
2023-04-15T19:12:29.306Z,98067.00
2023-04-15T19:14:57.431Z,98068.00
2023-04-15T19:17:26.991Z,98060.00
2023-04-15T19:19:55.338Z,98057.00
2023-04-15T19:22:23.656Z,98057.00
2023-04-15T19:24:52.392Z,98072.00
2023-04-15T19:27:20.719Z,98068.00
2023-04-15T19:29:49.501Z,98067.00
2023-04-15T19:32:17.864Z,98073.00
2023-04-15T19:34:47.563Z,98082.00
2023-04-15T19:37:16.261Z,98083.00
2023-04-15T19:39:44.396Z,98081.00
2023-04-15T19:42:12.870Z,98085.00
2023-04-15T19:44:42.901Z,98085.00
2023-04-15T19:47:11.126Z,98083.00
2023-04-15T19:49:39.231Z,98096.00
2023-04-15T19:52:08.894Z,98100.00
2023-04-15T19:54:37.204Z,98090.00
2023-04-15T19:57:05.592Z,98088.00
2023-04-15T19:59:33.642Z,98090.00
2023-04-15T20:02:01.934Z,98098.00
2023-04-15T20:04:30.458Z,98097.00
2023-04-15T20:06:58.593Z,98094.00
2023-04-15T20:09:28.261Z,98101.00
2023-04-15T20:12:47.729Z,98104.00
2023-04-15T20:14:44.740Z,98111.00
2023-04-15T20:17:13.338Z,98109.00
2023-04-15T20:19:41.405Z,98107.00
2023-04-15T20:22:09.462Z,98117.00
2023-04-15T20:24:39.284Z,98116.00
2023-04-15T20:27:07.977Z,98107.00
2023-04-15T20:29:36.323Z,98116.00
2023-04-15T20:32:04.760Z,98104.00
2023-04-15T20:34:33.085Z,98119.00
2023-04-15T20:37:01.518Z,98115.00
2023-04-15T20:39:30.127Z,98118.00
2023-04-15T20:41:59.534Z,98107.00
2023-04-15T20:44:27.751Z,98125.00
2023-04-15T20:46:55.842Z,98128.00
2023-04-15T20:49:24.017Z,98121.00
2023-04-15T20:51:52.088Z,98121.00
2023-04-15T20:54:20.563Z,98125.00
2023-04-15T20:56:48.645Z,98118.00
2023-04-15T20:59:18.045Z,98132.00
2023-04-15T21:01:46.782Z,98128.00
2023-04-15T21:04:14.845Z,98131.00
2023-04-15T21:06:42.911Z,98128.00
2023-04-15T21:09:11.156Z,98136.00
2023-04-15T21:11:57.573Z,98130.00
2023-04-15T21:14:29.264Z,98130.00
2023-04-15T21:16:58.115Z,98137.00
2023-04-15T21:19:26.310Z,98134.00
2023-04-15T21:21:54.426Z,98147.00
2023-04-15T21:24:22.461Z,98142.00
2023-04-15T21:26:50.686Z,98148.00
2023-04-15T21:29:18.785Z,98150.00
2023-04-15T21:31:48.223Z,98152.00
2023-04-15T21:34:16.292Z,98154.00
2023-04-15T21:36:44.333Z,98157.00
2023-04-15T21:39:12.493Z,98162.00
2023-04-15T21:41:40.635Z,98165.00
2023-04-15T21:44:08.840Z,98162.00
2023-04-15T21:46:36.949Z,98165.00
2023-04-15T21:49:07.291Z,98156.00
2023-04-15T21:51:35.498Z,98162.00
2023-04-15T21:54:03.630Z,98171.00
2023-04-15T21:56:31.931Z,98164.00
2023-04-15T21:59:00.038Z,98170.00
2023-04-15T22:01:30.917Z,98187.00
2023-04-15T22:03:59.152Z,98179.00
2023-04-15T22:06:28.714Z,98178.00
2023-04-15T22:08:57.769Z,98175.00
2023-04-15T22:11:28.200Z,98176.00
2023-04-15T22:13:56.978Z,98174.00
2023-04-15T22:16:25.772Z,98175.00
2023-04-15T22:18:53.993Z,98182.00
2023-04-15T22:21:22.055Z,98188.00
2023-04-15T22:23:51.984Z,98186.00
2023-04-15T22:26:20.060Z,98181.00
2023-04-15T22:28:48.188Z,98184.00
2023-04-15T22:31:16.317Z,98188.00
2023-04-15T22:33:46.008Z,98198.00
2023-04-15T22:36:15.311Z,98199.00
2023-04-15T22:38:43.380Z,98196.00
2023-04-15T22:41:12.759Z,98214.00
2023-04-15T22:43:40.786Z,98211.00
2023-04-15T22:46:08.830Z,98206.00
2023-04-15T22:48:36.918Z,98211.00
2023-04-15T22:51:05.985Z,98219.00
2023-04-15T22:53:34.023Z,98216.00
2023-04-15T22:56:02.274Z,98222.00
2023-04-15T22:58:32.770Z,98220.00
2023-04-15T23:01:00.939Z,98229.00
2023-04-15T23:03:29.084Z,98227.00
2023-04-15T23:05:57.211Z,98235.00
2023-04-15T23:08:25.422Z,98229.00
2023-04-15T23:10:53.452Z,98229.00
2023-04-15T23:13:21.439Z,98232.00
2023-04-15T23:15:50.900Z,98238.00
2023-04-15T23:18:18.952Z,98229.00
2023-04-15T23:20:47.136Z,98228.00
2023-04-15T23:23:15.648Z,98236.00
2023-04-15T23:25:43.676Z,98234.00
2023-04-15T23:28:11.737Z,98235.00
2023-04-15T23:30:39.779Z,98236.00
2023-04-15T23:33:09.283Z,98242.00
2023-04-15T23:35:37.853Z,98238.00
2023-04-15T23:38:05.961Z,98240.00
2023-04-15T23:40:33.995Z,98234.00
2023-04-15T23:43:02.021Z,98243.00
2023-04-15T23:45:30.057Z,98239.00
2023-04-15T23:47:58.136Z,98234.00
2023-04-15T23:50:28.136Z,98241.00
2023-04-15T23:52:56.144Z,98246.00
2023-04-15T23:55:24.484Z,98239.00
2023-04-15T23:57:52.589Z,98242.00
